This is the latest recevied weather packets stored in our database for station/object OE-11073. If no packets are shown the sender has not sent any weather packets the latest 10 day(s).
| Time | Temp. | Humidity | Pressure | Rain* | Wind** | Luminosity | Snow |
|---|---|---|---|---|---|---|---|
| 1787871909 | 16.11° C | 92% | - | 0 mm | - | 0 W/m² | - |
| 1787870483 | 15° C | 96% | - | 0 mm | - | 0 W/m² | - |
| 1787870110 | 15.56° C | 92% | - | 0 mm | - | 0 W/m² | - |
| 1787869510 | 16.11° C | 90% | - | 0 mm | - | 0 W/m² | - |
| 1787868683 | 16.67° C | 90% | - | 0 mm | - | 0 W/m² | - |
| 1787868309 | 16.11° C | 92% | - | 0 mm | - | 0 W/m² | - |
| 1787867710 | 15.56° C | 91% | - | 0 mm | - | 0 W/m² | - |
| 1787866883 | 16.67° C | 91% | - | 0 mm | - | 0 W/m² | - |
| 1787866509 | 15.56° C | 91% | - | 0 mm | - | 0 W/m² | - |
| 1787865910 | 16.11° C | 90% | - | 0 mm | - | 0 W/m² | - |
| 1787865083 | 16.67° C | 90% | - | 0 mm | - | 0 W/m² | - |
| 1787864709 | 16.11° C | 89% | - | 0 mm | - | 0 W/m² | - |
| 1787864109 | 17.22° C | 87% | - | 0 mm | - | 0 W/m² | - |
| 1787863283 | 17.78° C | 85% | - | 0 mm | - | 0 W/m² | - |
| 1787862910 | 17.78° C | 84% | - | 0 mm | - | 0 W/m² | - |
| 1787862310 | 18.33° C | 84% | - | 0 mm | - | 0 W/m² | - |
| 1787861483 | 18.33° C | 82% | - | 0 mm | - | 0 W/m² | - |
| 1787861110 | 17.78° C | 85% | - | 0 mm | - | 0 W/m² | - |
| 1787860510 | 18.33° C | 82% | - | 0 mm | - | 0 W/m² | - |
| 1787859683 | 18.33° C | 84% | - | 0 mm | - | 0 W/m² | - |
| 1787859310 | 18.33° C | 81% | - | 0 mm | - | 0 W/m² | - |
| 1787858710 | 19.44° C | 80% | - | 0 mm | - | 0 W/m² | - |
| 1787857883 | 18.33° C | 83% | - | 0 mm | - | 0 W/m² | - |
| 1787857510 | 19.44° C | 80% | - | 0 mm | - | 0 W/m² | - |
| 1787856910 | 19.44° C | 82% | - | 0 mm | - | 0 W/m² | - |
* Rain latest hour (hover to see other rain measurements)
** Current wind speed in m/s (hover to see current wind gust speed)